createdAt,value
2023-02-04T00:00:24.133Z,46.80
2023-02-04T00:02:31.560Z,46.95
2023-02-04T00:04:38.696Z,49.45
2023-02-04T00:06:47.258Z,48.97
2023-02-04T00:08:54.460Z,53.50
2023-02-04T00:11:01.390Z,50.72
2023-02-04T00:13:08.459Z,44.88
2023-02-04T00:15:15.340Z,46.83
2023-02-04T00:17:22.616Z,52.00
2023-02-04T00:19:29.443Z,55.45
2023-02-04T00:21:36.828Z,55.03
2023-02-04T00:23:45.748Z,59.05
2023-02-04T00:25:53.036Z,64.80
2023-02-04T00:27:59.954Z,61.88
2023-02-04T00:30:07.499Z,66.70
2023-02-04T00:32:14.445Z,68.35
2023-02-04T00:34:21.762Z,70.15
2023-02-04T00:36:28.571Z,64.47
2023-02-04T00:38:35.601Z,61.92
2023-02-04T00:40:44.330Z,61.05
2023-02-04T00:42:51.347Z,60.13
2023-02-04T00:44:58.218Z,52.95
2023-02-04T00:47:05.466Z,48.85
2023-02-04T00:49:13.112Z,49.55
2023-02-04T00:51:20.401Z,48.15
2023-02-04T00:53:27.579Z,52.47
2023-02-04T00:55:34.754Z,56.30
2023-02-04T00:57:43.374Z,56.00
2023-02-04T00:59:50.399Z,56.70
2023-02-04T01:01:57.346Z,55.80
2023-02-04T01:04:04.495Z,51.63
2023-02-04T01:06:11.320Z,52.58
2023-02-04T01:08:18.720Z,48.05
2023-02-04T01:10:26.362Z,49.33
2023-02-04T01:12:33.955Z,54.08
2023-02-04T01:14:42.777Z,54.60
2023-02-04T01:16:50.449Z,58.10
2023-02-04T01:18:57.406Z,52.88
2023-02-04T01:21:07.546Z,47.85
2023-02-04T01:23:15.278Z,49.45
2023-02-04T01:25:22.881Z,49.90
2023-02-04T01:27:30.422Z,51.17
2023-02-04T01:29:37.501Z,47.08
2023-02-04T01:31:46.088Z,51.95
2023-02-04T01:33:54.870Z,47.97
2023-02-04T01:36:01.812Z,45.45
2023-02-04T01:38:09.352Z,48.83
2023-02-04T01:40:16.722Z,48.85
2023-02-04T01:42:24.072Z,46.72
2023-02-04T01:44:31.460Z,48.05
2023-02-04T01:46:38.799Z,48.00
2023-02-04T01:48:47.870Z,48.17
2023-02-04T01:50:58.892Z,45.55
2023-02-04T01:53:06.073Z,49.13
2023-02-04T01:55:18.893Z,46.65
2023-02-04T01:57:26.178Z,46.88
2023-02-04T01:59:33.148Z,47.40
2023-02-04T02:01:42.890Z,47.25
2023-02-04T02:03:51.660Z,48.63
2023-02-04T02:05:59.660Z,43.05
2023-02-04T02:08:08.481Z,45.90
2023-02-04T02:10:19.246Z,44.50
2023-02-04T02:12:26.585Z,42.72
2023-02-04T02:14:33.510Z,42.65
2023-02-04T02:16:41.091Z,39.80
2023-02-04T02:18:49.815Z,39.17
2023-02-04T02:20:57.508Z,41.28
2023-02-04T02:23:09.402Z,38.30
2023-02-04T02:25:18.787Z,36.72
2023-02-04T02:27:26.732Z,44.58
2023-02-04T02:29:34.175Z,41.33
2023-02-04T02:31:41.237Z,40.05
2023-02-04T02:33:49.100Z,40.58
2023-02-04T02:35:56.175Z,38.90
2023-02-04T02:38:04.537Z,38.38
2023-02-04T02:40:13.099Z,36.47
2023-02-04T02:42:23.205Z,40.17
2023-02-04T02:44:31.096Z,42.35
2023-02-04T02:46:38.261Z,41.53
2023-02-04T02:48:45.101Z,44.17
2023-02-04T02:50:52.741Z,49.47
2023-02-04T02:53:02.335Z,43.03
2023-02-04T02:55:16.123Z,40.90
2023-02-04T02:57:27.034Z,46.40
2023-02-04T02:59:34.572Z,42.83
2023-02-04T03:01:41.440Z,43.53
2023-02-04T03:03:53.030Z,47.65
2023-02-04T03:06:03.447Z,45.10
2023-02-04T03:08:11.846Z,44.70
2023-02-04T03:10:19.530Z,38.15
2023-02-04T03:12:28.565Z,40.45
2023-02-04T03:14:34.723Z,41.45
2023-02-04T03:16:42.962Z,39.53
2023-02-04T03:18:50.248Z,37.42
2023-02-04T03:20:57.499Z,35.97
2023-02-04T03:23:04.516Z,37.83
2023-02-04T03:25:12.373Z,34.70
2023-02-04T03:27:19.353Z,34.15
2023-02-04T03:29:29.810Z,32.72
2023-02-04T03:31:37.232Z,32.40
2023-02-04T03:33:44.125Z,28.17
2023-02-04T03:35:51.310Z,29.63
2023-02-04T03:37:58.133Z,33.70
2023-02-04T03:40:05.620Z,31.08
2023-02-04T03:42:12.497Z,30.30
2023-02-04T03:44:19.831Z,29.38
2023-02-04T03:46:29.679Z,29.88
2023-02-04T03:48:37.012Z,28.52
2023-02-04T03:50:43.984Z,30.50
2023-02-04T03:52:52.636Z,24.20
2023-02-04T03:54:59.324Z,28.92
2023-02-04T03:57:06.496Z,25.20
2023-02-04T03:59:13.326Z,24.52
2023-02-04T04:01:20.548Z,27.23
2023-02-04T04:03:29.162Z,26.80
2023-02-04T04:05:36.570Z,24.58
2023-02-04T04:07:43.442Z,25.63
2023-02-04T04:09:50.521Z,28.55
2023-02-04T04:11:57.492Z,27.90
2023-02-04T04:14:04.938Z,25.15
2023-02-04T04:16:12.131Z,30.95
2023-02-04T04:18:19.482Z,25.83
2023-02-04T04:20:29.248Z,24.80
2023-02-04T04:22:36.677Z,25.52
2023-02-04T04:24:43.964Z,27.85
2023-02-04T04:26:51.092Z,29.65
2023-02-04T04:28:58.068Z,30.05
2023-02-04T04:31:05.208Z,35.58
2023-02-04T04:33:12.120Z,39.50
2023-02-04T04:35:19.353Z,37.90
2023-02-04T04:37:28.123Z,41.10
2023-02-04T04:39:35.251Z,41.45
2023-02-04T04:41:42.227Z,39.80
2023-02-04T04:43:49.458Z,39.03
2023-02-04T04:45:56.265Z,41.55
2023-02-04T04:48:03.462Z,30.90
2023-02-04T04:50:10.918Z,33.35
2023-02-04T04:52:18.036Z,32.47
2023-02-04T04:54:26.798Z,29.75
2023-02-04T04:56:34.391Z,27.17
2023-02-04T04:58:41.164Z,24.45
2023-02-04T05:00:48.376Z,22.60
2023-02-04T05:02:55.526Z,22.52
2023-02-04T05:05:02.782Z,26.38
2023-02-04T05:07:09.747Z,23.67
2023-02-04T05:09:18.457Z,22.75
2023-02-04T05:11:27.082Z,25.08
2023-02-04T05:13:34.108Z,20.20
2023-02-04T05:15:40.959Z,17.70
2023-02-04T05:17:50.312Z,15.18
2023-02-04T05:19:57.353Z,13.63
2023-02-04T05:22:04.570Z,13.45
2023-02-04T05:24:11.479Z,13.52
2023-02-04T05:26:29.453Z,13.65
2023-02-04T05:28:38.666Z,11.70
2023-02-04T05:30:45.969Z,13.38
2023-02-04T05:32:53.084Z,10.20
2023-02-04T05:35:00.213Z,9.73
2023-02-04T05:37:09.126Z,10.82
2023-02-04T05:39:16.257Z,11.82
2023-02-04T05:41:23.193Z,13.70
2023-02-04T05:43:30.416Z,9.68
2023-02-04T05:45:39.081Z,11.77
2023-02-04T05:47:46.430Z,14.50
2023-02-04T05:49:53.393Z,11.15
2023-02-04T05:52:00.584Z,11.18
2023-02-04T05:54:07.499Z,9.52
2023-02-04T05:56:14.737Z,15.48
2023-02-04T05:58:21.558Z,14.68
2023-02-04T06:00:28.904Z,14.98
2023-02-04T06:02:37.514Z,15.52
2023-02-04T06:04:44.942Z,15.60
2023-02-04T06:06:51.818Z,15.70
2023-02-04T06:08:58.998Z,14.95
2023-02-04T06:11:05.831Z,13.63
2023-02-04T06:13:13.106Z,18.98
2023-02-04T06:15:21.518Z,13.40
2023-02-04T06:17:28.606Z,13.38
2023-02-04T06:19:37.246Z,15.43
2023-02-04T06:21:44.545Z,14.65
2023-02-04T06:23:51.881Z,17.30
2023-02-04T06:25:58.804Z,13.88
2023-02-04T06:28:06.055Z,12.63
2023-02-04T06:30:15.095Z,11.43
2023-02-04T06:32:23.321Z,12.65
2023-02-04T06:34:30.196Z,14.40
2023-02-04T06:36:39.336Z,10.07
2023-02-04T06:38:46.146Z,11.85
2023-02-04T06:40:54.812Z,12.70
2023-02-04T06:43:02.331Z,11.50
2023-02-04T06:45:11.375Z,11.32
2023-02-04T06:47:18.250Z,11.73
2023-02-04T06:49:26.208Z,10.95
2023-02-04T06:51:32.973Z,14.43
2023-02-04T06:53:41.691Z,14.80
2023-02-04T06:55:48.620Z,13.35
2023-02-04T06:57:55.797Z,14.45
2023-02-04T07:00:02.767Z,13.23
2023-02-04T07:02:10.861Z,15.25
2023-02-04T07:04:17.649Z,12.75
2023-02-04T07:06:24.840Z,11.02
2023-02-04T07:08:31.818Z,13.65
2023-02-04T07:10:40.577Z,10.68
2023-02-04T07:12:47.512Z,15.85
2023-02-04T07:14:54.839Z,13.05
2023-02-04T07:17:01.712Z,11.63
2023-02-04T07:19:08.897Z,16.40
2023-02-04T07:21:15.776Z,11.30
2023-02-04T07:23:23.002Z,12.13
2023-02-04T07:25:29.943Z,11.60
2023-02-04T07:27:38.879Z,12.57
2023-02-04T07:29:45.827Z,17.10
2023-02-04T07:31:54.013Z,11.80
2023-02-04T07:34:00.968Z,11.60
2023-02-04T07:36:08.497Z,10.70
2023-02-04T07:38:15.474Z,13.20
2023-02-04T07:40:22.907Z,10.10
2023-02-04T07:42:29.783Z,11.65
2023-02-04T07:44:47.201Z,13.82
2023-02-04T07:46:54.111Z,12.65
2023-02-04T07:49:01.258Z,10.63
2023-02-04T07:51:08.335Z,16.13
2023-02-04T07:53:15.569Z,15.80
2023-02-04T07:55:22.546Z,11.70
2023-02-04T07:57:30.302Z,11.70
2023-02-04T07:59:37.112Z,11.18
2023-02-04T08:01:45.992Z,12.27
2023-02-04T08:03:52.905Z,12.05
2023-02-04T08:06:00.026Z,13.50
2023-02-04T08:08:07.015Z,14.45
2023-02-04T08:10:14.909Z,11.48
2023-02-04T08:12:21.846Z,12.38
2023-02-04T08:14:28.964Z,11.73
2023-02-04T08:16:35.892Z,14.05
2023-02-04T08:18:44.709Z,11.85
2023-02-04T08:20:51.644Z,10.60
2023-02-04T08:22:58.764Z,13.90
2023-02-04T08:25:06.412Z,12.10
2023-02-04T08:27:13.588Z,12.45
2023-02-04T08:29:20.462Z,13.00
2023-02-04T08:31:27.624Z,13.52
2023-02-04T08:33:34.449Z,12.57
2023-02-04T08:35:43.241Z,13.48
2023-02-04T08:37:50.210Z,10.48
2023-02-04T08:39:57.800Z,11.60
2023-02-04T08:42:04.709Z,11.38
2023-02-04T08:44:11.756Z,13.82
2023-02-04T08:46:18.792Z,11.95
2023-02-04T08:48:26.029Z,13.85
2023-02-04T08:50:33.287Z,16.65
2023-02-04T08:52:42.453Z,13.57
2023-02-04T08:54:49.426Z,11.18
2023-02-04T08:56:56.559Z,11.95
2023-02-04T08:59:03.520Z,10.90
2023-02-04T09:01:12.271Z,11.07
2023-02-04T09:03:19.131Z,9.38
2023-02-04T09:05:26.211Z,11.65
2023-02-04T09:07:33.242Z,10.85
2023-02-04T09:09:42.200Z,11.88
2023-02-04T09:11:48.989Z,11.98
2023-02-04T09:13:57.706Z,11.27
2023-02-04T09:16:04.582Z,13.68
2023-02-04T09:18:17.602Z,12.23
2023-02-04T09:20:24.607Z,13.07
2023-02-04T09:22:31.663Z,12.70
2023-02-04T09:24:38.640Z,16.38
2023-02-04T09:26:47.544Z,13.95
2023-02-04T09:28:54.741Z,17.58
2023-02-04T09:31:04.199Z,21.13
2023-02-04T09:33:15.100Z,66.25
2023-02-04T09:35:21.974Z,87.35
2023-02-04T09:37:30.282Z,69.07
2023-02-04T09:39:37.157Z,35.83
2023-02-04T09:41:46.698Z,24.65
2023-02-04T09:43:53.773Z,18.25
2023-02-04T09:46:01.879Z,18.10
2023-02-04T09:48:10.323Z,15.32
2023-02-04T09:50:21.879Z,13.98
2023-02-04T09:52:30.847Z,11.68
2023-02-04T09:54:39.406Z,16.05
2023-02-04T09:56:48.388Z,17.40
2023-02-04T09:58:55.654Z,16.67
2023-02-04T10:01:09.119Z,14.10
2023-02-04T10:03:20.540Z,17.95
2023-02-04T10:05:32.202Z,17.45
2023-02-04T10:07:39.328Z,15.85
2023-02-04T10:09:46.145Z,14.35
2023-02-04T10:11:55.069Z,12.60
2023-02-04T10:14:01.890Z,16.73
2023-02-04T10:16:16.378Z,15.00
2023-02-04T10:18:28.436Z,16.35
2023-02-04T10:20:35.268Z,14.40
2023-02-04T10:22:43.450Z,17.17
2023-02-04T10:24:50.492Z,14.02
2023-02-04T10:27:09.978Z,16.10
2023-02-04T10:29:20.997Z,17.08
2023-02-04T10:31:39.994Z,13.45
2023-02-04T10:33:46.925Z,13.60
2023-02-04T10:35:56.207Z,13.75
2023-02-04T10:38:10.353Z,15.75
2023-02-04T10:40:35.335Z,14.70
2023-02-04T10:42:53.645Z,18.15
2023-02-04T10:45:01.895Z,18.73
2023-02-04T10:47:10.824Z,18.92
2023-02-04T10:49:25.692Z,19.70
2023-02-04T10:51:32.506Z,21.40
2023-02-04T10:53:56.314Z,18.52
2023-02-04T10:56:03.568Z,16.80
2023-02-04T10:58:15.199Z,18.65
2023-02-04T11:00:23.780Z,19.20
2023-02-04T11:02:40.091Z,15.63
2023-02-04T11:04:47.035Z,19.35
2023-02-04T11:06:55.445Z,18.92
2023-02-04T11:09:04.518Z,16.73
2023-02-04T11:11:13.116Z,17.05
2023-02-04T11:13:28.770Z,15.60
2023-02-04T11:15:50.143Z,17.35
2023-02-04T11:18:07.146Z,20.30
2023-02-04T11:20:33.880Z,21.80
2023-02-04T11:22:46.087Z,22.33
2023-02-04T11:24:53.626Z,25.23
2023-02-04T11:27:11.715Z,25.73
2023-02-04T11:29:35.949Z,31.02
2023-02-04T11:32:01.702Z,31.92
2023-02-04T11:34:16.261Z,33.78
2023-02-04T11:36:23.192Z,52.38
2023-02-04T11:38:33.749Z,52.33
2023-02-04T11:40:43.897Z,57.88
2023-02-04T11:42:52.080Z,63.25
2023-02-04T11:45:04.609Z,65.28
2023-02-04T11:47:12.251Z,65.40
2023-02-04T11:49:22.352Z,52.15
2023-02-04T11:51:33.665Z,54.58
2023-02-04T11:53:40.501Z,52.73
2023-02-04T11:55:51.064Z,46.40
2023-02-04T11:57:59.055Z,41.25
2023-02-04T12:00:08.757Z,46.33
2023-02-04T12:02:21.021Z,40.20
2023-02-04T12:04:29.470Z,45.55
2023-02-04T12:06:38.182Z,43.75
2023-02-04T12:08:45.522Z,40.60
2023-02-04T12:10:53.626Z,40.78
2023-02-04T12:13:01.116Z,45.55
2023-02-04T12:15:18.537Z,45.55
2023-02-04T12:17:25.721Z,40.67
2023-02-04T12:19:32.643Z,38.50
2023-02-04T12:21:39.672Z,40.95
2023-02-04T12:23:46.599Z,39.13
2023-02-04T12:25:54.142Z,37.55
2023-02-04T12:28:01.068Z,32.80
2023-02-04T12:30:10.753Z,35.47
2023-02-04T12:32:17.740Z,34.58
2023-02-04T12:34:25.833Z,40.65
2023-02-04T12:36:33.050Z,40.60
2023-02-04T12:38:40.144Z,37.25
2023-02-04T12:40:47.374Z,42.03
2023-02-04T12:42:54.251Z,37.17
2023-02-04T12:45:01.542Z,35.95
2023-02-04T12:47:10.183Z,36.80
2023-02-04T12:49:17.485Z,46.10
2023-02-04T12:51:24.461Z,38.60
2023-02-04T12:53:31.797Z,44.05
2023-02-04T12:55:40.051Z,36.47
2023-02-04T12:57:47.332Z,35.28
2023-02-04T12:59:54.209Z,36.10
2023-02-04T13:02:01.614Z,35.45
2023-02-04T13:04:10.367Z,33.72
2023-02-04T13:06:17.500Z,38.97
2023-02-04T13:08:24.534Z,38.75
2023-02-04T13:10:32.019Z,37.53
2023-02-04T13:12:38.887Z,40.20
2023-02-04T13:14:46.427Z,42.83
2023-02-04T13:16:53.405Z,40.13
2023-02-04T13:19:00.827Z,35.70
2023-02-04T13:21:09.919Z,37.17
2023-02-04T13:23:16.897Z,46.55
2023-02-04T13:25:23.808Z,49.03
2023-02-04T13:27:30.898Z,36.80
2023-02-04T13:29:38.338Z,38.50
2023-02-04T13:31:45.234Z,36.58
2023-02-04T13:33:52.546Z,35.70
2023-02-04T13:36:00.245Z,36.58
2023-02-04T13:38:09.440Z,39.70
2023-02-04T13:40:16.709Z,35.05
2023-02-04T13:42:24.306Z,38.67
2023-02-04T13:44:31.276Z,39.33
2023-02-04T13:46:38.805Z,38.30
2023-02-04T13:48:47.541Z,38.85
2023-02-04T13:50:55.535Z,39.33
2023-02-04T13:53:02.676Z,36.90
2023-02-04T13:55:12.153Z,41.95
2023-02-04T13:57:19.538Z,39.40
2023-02-04T13:59:26.720Z,37.13
2023-02-04T14:01:33.906Z,40.00
2023-02-04T14:03:41.322Z,37.22
2023-02-04T14:05:48.822Z,34.92
2023-02-04T14:07:55.753Z,33.83
2023-02-04T14:10:03.052Z,37.05
2023-02-04T14:12:11.952Z,34.25
2023-02-04T14:14:19.330Z,34.70
2023-02-04T14:16:26.408Z,32.05
2023-02-04T14:18:33.962Z,32.42
2023-02-04T14:20:41.536Z,31.67
2023-02-04T14:22:48.735Z,33.97
2023-02-04T14:24:55.711Z,31.50
2023-02-04T14:27:08.268Z,31.08
2023-02-04T14:29:16.868Z,33.22
2023-02-04T14:31:24.104Z,33.78
2023-02-04T14:33:31.109Z,32.33
2023-02-04T14:35:38.799Z,29.55
2023-02-04T14:37:45.970Z,32.28
2023-02-04T14:39:53.239Z,30.13
2023-02-04T14:42:00.127Z,27.83
2023-02-04T14:44:07.513Z,27.98
2023-02-04T14:46:16.284Z,29.67
2023-02-04T14:48:24.027Z,31.38
2023-02-04T14:50:31.873Z,33.47
2023-02-04T14:52:39.160Z,27.42
2023-02-04T14:54:46.036Z,27.55
2023-02-04T14:56:53.574Z,29.20
2023-02-04T14:59:01.541Z,31.63
2023-02-04T15:01:08.692Z,29.48
2023-02-04T15:03:17.742Z,31.80
2023-02-04T15:05:24.649Z,26.02
2023-02-04T15:07:31.587Z,28.75
2023-02-04T15:09:38.919Z,29.85
2023-02-04T15:11:45.806Z,30.23
2023-02-04T15:13:53.247Z,34.17
2023-02-04T15:16:00.114Z,32.47
2023-02-04T15:18:07.601Z,32.45
2023-02-04T15:20:16.671Z,35.30
2023-02-04T15:22:23.850Z,33.10
2023-02-04T15:24:31.389Z,29.10
2023-02-04T15:26:38.574Z,33.25
2023-02-04T15:28:45.446Z,32.78
2023-02-04T15:30:52.843Z,36.17
2023-02-04T15:32:59.759Z,42.00
2023-02-04T15:35:07.347Z,45.47
2023-02-04T15:37:15.910Z,46.92
2023-02-04T15:39:23.091Z,36.38
2023-02-04T15:41:30.069Z,39.88
2023-02-04T15:43:37.403Z,36.90
2023-02-04T15:45:44.986Z,34.97
2023-02-04T15:47:52.120Z,36.58
2023-02-04T15:49:58.998Z,39.90
2023-02-04T15:52:10.899Z,40.47
2023-02-04T15:54:22.121Z,38.45
2023-02-04T15:56:29.665Z,39.33
2023-02-04T15:58:36.543Z,41.28
2023-02-04T16:00:45.208Z,41.78
2023-02-04T16:02:52.228Z,39.15
2023-02-04T16:04:59.623Z,39.22
2023-02-04T16:07:09.257Z,39.67
2023-02-04T16:09:16.492Z,42.75
2023-02-04T16:11:25.551Z,42.42
2023-02-04T16:13:32.959Z,42.47
2023-02-04T16:15:39.932Z,45.33
2023-02-04T16:17:47.731Z,49.53
2023-02-04T16:19:54.564Z,45.53
2023-02-04T16:22:01.891Z,41.97
2023-02-04T16:24:09.477Z,46.30
2023-02-04T16:26:16.725Z,47.00
2023-02-04T16:28:25.450Z,42.78
2023-02-04T16:30:32.829Z,40.55
2023-02-04T16:32:40.237Z,39.22
2023-02-04T16:34:47.482Z,40.92
2023-02-04T16:36:54.560Z,43.13
2023-02-04T16:39:03.845Z,43.70
2023-02-04T16:41:10.871Z,46.05
2023-02-04T16:43:17.895Z,49.72
2023-02-04T16:45:26.511Z,42.83
2023-02-04T16:47:33.896Z,44.65
2023-02-04T16:49:40.821Z,42.22
2023-02-04T16:51:48.057Z,41.53
2023-02-04T16:53:54.826Z,42.13
2023-02-04T16:56:03.271Z,47.63
2023-02-04T16:58:10.366Z,40.67
2023-02-04T17:00:18.392Z,38.22
2023-02-04T17:02:26.990Z,39.25
2023-02-04T17:04:35.103Z,39.50
2023-02-04T17:06:41.961Z,35.67
2023-02-04T17:08:49.144Z,34.75
2023-02-04T17:11:12.999Z,36.70
2023-02-04T17:13:20.198Z,44.63
2023-02-04T17:15:27.329Z,39.42
2023-02-04T17:17:35.943Z,40.53
2023-02-04T17:19:42.828Z,38.80
2023-02-04T17:21:50.006Z,37.22
2023-02-04T17:23:57.131Z,36.97
2023-02-04T17:26:04.004Z,35.80
2023-02-04T17:28:11.203Z,39.13
2023-02-04T17:30:18.728Z,38.65
2023-02-04T17:32:25.807Z,37.60
2023-02-04T17:34:34.421Z,37.22
2023-02-04T17:36:41.516Z,37.88
2023-02-04T17:38:48.369Z,39.28
2023-02-04T17:40:56.178Z,36.63
2023-02-04T17:43:03.000Z,40.80
2023-02-04T17:45:11.775Z,35.47
2023-02-04T17:47:19.012Z,39.55
2023-02-04T17:49:26.183Z,34.15
2023-02-04T17:51:35.279Z,36.53
2023-02-04T17:53:43.098Z,35.58
2023-02-04T17:55:50.442Z,40.22
2023-02-04T17:57:58.064Z,35.72
2023-02-04T18:00:05.112Z,33.95
2023-02-04T18:02:28.084Z,35.75
2023-02-04T18:04:35.454Z,36.70
2023-02-04T18:06:44.370Z,32.15
2023-02-04T18:08:51.867Z,30.70
2023-02-04T18:10:59.509Z,34.08
2023-02-04T18:13:14.757Z,34.10
2023-02-04T18:15:32.086Z,30.92
2023-02-04T18:17:39.070Z,34.25
2023-02-04T18:19:46.507Z,32.03
2023-02-04T18:21:55.226Z,31.27
2023-02-04T18:24:10.021Z,30.73
2023-02-04T18:26:20.087Z,32.30
2023-02-04T18:28:26.992Z,36.58
2023-02-04T18:30:35.137Z,33.30
2023-02-04T18:32:43.255Z,33.45
2023-02-04T18:34:51.821Z,31.88
2023-02-04T18:37:00.497Z,29.10
2023-02-04T18:39:18.786Z,29.73
2023-02-04T18:41:34.925Z,28.40
2023-02-04T18:43:43.591Z,29.13
2023-02-04T18:45:50.503Z,32.97
2023-02-04T18:47:59.237Z,28.85
2023-02-04T18:50:21.058Z,30.42
2023-02-04T18:54:40.233Z,31.77
2023-02-04T18:56:47.569Z,27.23
2023-02-04T18:58:55.113Z,27.27
2023-02-04T19:01:10.970Z,30.60
2023-02-04T19:03:27.974Z,31.23
2023-02-04T19:05:39.745Z,31.65
2023-02-04T19:07:48.410Z,31.95
2023-02-04T19:09:55.643Z,31.05
2023-02-04T19:12:03.935Z,32.75
2023-02-04T19:14:21.816Z,31.77
2023-02-04T19:16:37.408Z,31.75
2023-02-04T19:18:45.724Z,33.83
2023-02-04T19:20:52.646Z,29.58
2023-02-04T19:23:01.535Z,30.90
2023-02-04T19:25:30.833Z,28.27
2023-02-04T19:27:39.123Z,28.38
2023-02-04T19:29:46.237Z,30.17
2023-02-04T19:31:55.599Z,31.60
2023-02-04T19:34:04.253Z,30.50
2023-02-04T19:36:26.702Z,29.95
2023-02-04T19:40:53.660Z,28.92
2023-02-04T19:43:07.032Z,32.50
2023-02-04T19:45:21.155Z,27.45
2023-02-04T19:47:29.795Z,27.90
2023-02-04T19:49:42.760Z,30.25
2023-02-04T19:51:52.030Z,31.60
2023-02-04T19:54:12.742Z,30.73
2023-02-04T19:56:38.100Z,32.75
2023-02-04T19:58:47.432Z,29.73
2023-02-04T20:01:02.737Z,29.80
2023-02-04T20:03:22.869Z,30.63
2023-02-04T20:05:36.025Z,31.88
2023-02-04T20:07:46.282Z,32.88
2023-02-04T20:10:01.090Z,28.77
2023-02-04T20:12:15.382Z,30.17
2023-02-04T20:14:47.104Z,28.67
2023-02-04T20:19:04.115Z,27.27
2023-02-04T20:21:16.161Z,30.52
2023-02-04T20:25:44.853Z,30.27
2023-02-04T20:27:58.512Z,30.58
2023-02-04T20:30:26.270Z,34.03
2023-02-04T20:32:37.985Z,26.02
2023-02-04T20:34:45.688Z,27.58
2023-02-04T20:36:53.885Z,25.98
2023-02-04T20:39:22.226Z,27.52
2023-02-04T20:41:31.085Z,34.38
2023-02-04T20:43:42.040Z,27.83
2023-02-04T20:45:53.111Z,31.45
2023-02-04T20:48:03.825Z,30.27
2023-02-04T20:50:39.754Z,30.65
2023-02-04T20:53:35.929Z,37.35
2023-02-04T20:55:53.922Z,30.60
2023-02-04T20:58:18.105Z,26.08
2023-02-04T21:00:32.805Z,28.70
2023-02-04T21:02:40.272Z,24.85
2023-02-04T21:04:53.061Z,30.83
2023-02-04T21:07:04.793Z,27.85
2023-02-04T21:09:18.370Z,31.48
2023-02-04T21:11:25.552Z,30.52
2023-02-04T21:13:34.070Z,30.45
2023-02-04T21:15:41.441Z,31.30
2023-02-04T21:17:48.316Z,30.40
2023-02-04T21:19:55.393Z,30.27
2023-02-04T21:22:02.689Z,27.85
2023-02-04T21:24:10.747Z,29.67
2023-02-04T21:26:17.666Z,26.92
2023-02-04T21:28:24.878Z,32.25
2023-02-04T21:30:33.547Z,30.73
2023-02-04T21:32:40.388Z,31.48
2023-02-04T21:34:47.727Z,31.00
2023-02-04T21:36:54.477Z,30.67
2023-02-04T21:39:02.041Z,30.48
2023-02-04T21:41:09.167Z,30.13
2023-02-04T21:43:16.281Z,28.08
2023-02-04T21:45:27.302Z,29.15
2023-02-04T21:47:35.883Z,27.67
2023-02-04T21:49:43.123Z,28.02
2023-02-04T21:51:50.538Z,28.73
2023-02-04T21:53:57.228Z,27.98
2023-02-04T21:56:04.287Z,30.63
2023-02-04T21:58:11.229Z,28.67
2023-02-04T22:00:19.026Z,27.83
2023-02-04T22:02:26.566Z,30.85
2023-02-04T22:04:35.391Z,28.58
2023-02-04T22:06:42.157Z,27.52
2023-02-04T22:08:49.367Z,29.27
2023-02-04T22:10:56.034Z,29.10
2023-02-04T22:13:03.128Z,28.33
2023-02-04T22:15:09.753Z,29.70
2023-02-04T22:17:16.930Z,33.80
2023-02-04T22:19:23.696Z,30.27
2023-02-04T22:21:32.479Z,27.02
2023-02-04T22:23:39.323Z,26.67
2023-02-04T22:25:46.487Z,29.23
2023-02-04T22:27:53.620Z,31.67
2023-02-04T22:30:04.010Z,27.67
2023-02-04T22:32:10.778Z,28.80
2023-02-04T22:34:17.735Z,32.35
2023-02-04T22:36:24.480Z,32.38
2023-02-04T22:38:33.299Z,33.53
2023-02-04T22:40:40.635Z,33.28
2023-02-04T22:42:47.344Z,33.08
2023-02-04T22:44:54.201Z,29.48
2023-02-04T22:47:01.397Z,31.15
2023-02-04T22:49:08.198Z,32.95
2023-02-04T22:51:15.537Z,31.98
2023-02-04T22:53:22.258Z,30.63
2023-02-04T22:55:31.020Z,33.97
2023-02-04T22:57:37.869Z,33.03
2023-02-04T22:59:45.040Z,30.25
2023-02-04T23:01:51.862Z,32.33
2023-02-04T23:03:59.240Z,32.10
2023-02-04T23:06:06.099Z,29.05
2023-02-04T23:08:13.229Z,30.15
2023-02-04T23:10:20.228Z,33.17
2023-02-04T23:12:29.108Z,30.90
2023-02-04T23:14:36.053Z,34.83
2023-02-04T23:16:43.454Z,34.15
2023-02-04T23:18:50.379Z,31.17
2023-02-04T23:20:57.389Z,31.98
2023-02-04T23:23:04.408Z,42.55
2023-02-04T23:25:12.071Z,70.13
2023-02-04T23:27:18.882Z,59.10
2023-02-04T23:29:27.721Z,39.42
2023-02-04T23:31:34.479Z,35.65
2023-02-04T23:33:41.663Z,37.30
2023-02-04T23:35:49.150Z,31.80
2023-02-04T23:37:58.548Z,36.50
2023-02-04T23:40:05.319Z,38.42
2023-02-04T23:42:12.328Z,41.42
2023-02-04T23:44:19.103Z,40.00
2023-02-04T23:46:27.834Z,35.55
2023-02-04T23:48:34.592Z,43.40
2023-02-04T23:50:41.725Z,47.75
2023-02-04T23:52:48.530Z,40.45
2023-02-04T23:54:55.814Z,41.78
2023-02-04T23:57:03.086Z,39.30
2023-02-04T23:59:10.703Z,38.40
